createdAt,value
2018-09-05T00:01:56.459Z,11.00
2018-09-05T00:04:24.851Z,10.03
2018-09-05T00:06:52.948Z,8.90
2018-09-05T00:09:21.032Z,12.10
2018-09-05T00:11:49.118Z,10.73
2018-09-05T00:14:17.234Z,12.90
2018-09-05T00:16:45.309Z,14.03
2018-09-05T00:19:13.395Z,14.57
2018-09-05T00:21:41.511Z,12.63
2018-09-05T00:24:09.619Z,17.60
2018-09-05T00:26:37.731Z,10.67
2018-09-05T00:29:05.840Z,9.70
2018-09-05T00:31:33.955Z,8.90
2018-09-05T00:34:02.070Z,11.17
2018-09-05T00:36:30.104Z,9.40
2018-09-05T00:38:58.181Z,12.40
2018-09-05T00:41:26.233Z,11.80
2018-09-05T00:43:54.318Z,10.33
2018-09-05T00:46:22.387Z,10.10
2018-09-05T00:48:50.451Z,7.90
2018-09-05T00:51:18.531Z,12.57
2018-09-05T00:53:46.605Z,9.67
2018-09-05T00:56:14.668Z,10.37
2018-09-05T00:58:42.742Z,7.90
2018-09-05T01:01:10.802Z,9.33
2018-09-05T01:03:38.902Z,10.90
2018-09-05T01:06:06.966Z,7.30
2018-09-05T01:08:35.061Z,8.40
2018-09-05T01:11:03.131Z,9.10
2018-09-05T01:13:31.202Z,12.37
2018-09-05T01:15:59.287Z,9.90
2018-09-05T01:18:27.370Z,11.53
2018-09-05T01:20:55.432Z,9.23
2018-09-05T01:23:23.527Z,9.60
2018-09-05T01:25:51.591Z,14.93
2018-09-05T01:28:19.750Z,9.97
2018-09-05T01:30:47.821Z,10.77
2018-09-05T01:33:15.915Z,13.10
2018-09-05T01:35:43.971Z,16.97
2018-09-05T01:38:12.059Z,12.20
2018-09-05T01:40:40.182Z,9.60
2018-09-05T01:43:08.253Z,11.60
2018-09-05T01:45:36.454Z,13.30
2018-09-05T01:48:04.582Z,12.93
2018-09-05T01:50:44.246Z,17.30
2018-09-05T01:53:12.894Z,13.23
2018-09-05T01:55:40.978Z,17.57
2018-09-05T01:58:09.103Z,14.03
2018-09-05T02:00:37.201Z,15.97
2018-09-05T02:03:05.692Z,14.00
2018-09-05T02:05:33.803Z,14.33
2018-09-05T02:08:02.953Z,15.20
2018-09-05T02:10:31.640Z,13.87
2018-09-05T02:12:59.949Z,13.50
2018-09-05T02:15:28.027Z,13.30
2018-09-05T02:17:56.151Z,17.03
2018-09-05T02:20:24.224Z,9.97
2018-09-05T02:22:52.324Z,12.97
2018-09-05T02:25:20.405Z,12.43
2018-09-05T02:27:48.485Z,9.70
2018-09-05T02:30:16.574Z,11.83
2018-09-05T02:32:44.656Z,8.53
2018-09-05T02:35:12.774Z,8.37
2018-09-05T02:37:40.923Z,12.37
2018-09-05T02:40:09.345Z,11.93
2018-09-05T02:42:37.559Z,10.97
2018-09-05T02:45:05.705Z,10.67
2018-09-05T02:47:33.841Z,10.43
2018-09-05T02:50:01.934Z,13.77
2018-09-05T02:52:30.009Z,12.73
2018-09-05T02:54:58.110Z,10.17
2018-09-05T02:57:26.248Z,11.03
2018-09-05T02:59:54.351Z,8.57
2018-09-05T03:02:22.431Z,9.35
2018-09-05T03:04:50.520Z,13.13
2018-09-05T03:07:18.629Z,10.20
2018-09-05T03:09:46.724Z,10.80
2018-09-05T03:12:19.374Z,14.03
2018-09-05T03:14:47.602Z,15.28
2018-09-05T03:17:15.696Z,11.20
2018-09-05T03:19:43.783Z,10.87
2018-09-05T03:22:11.988Z,11.63
2018-09-05T03:24:40.126Z,10.00
2018-09-05T03:27:08.281Z,10.07
2018-09-05T03:29:36.385Z,11.47
2018-09-05T03:32:04.524Z,11.93
2018-09-05T03:34:32.646Z,11.60
2018-09-05T03:37:00.771Z,11.57
2018-09-05T03:39:28.873Z,9.63
2018-09-05T03:41:56.958Z,12.13
2018-09-05T03:44:25.054Z,12.43
2018-09-05T03:46:53.151Z,12.63
2018-09-05T03:49:21.231Z,15.40
2018-09-05T03:51:49.340Z,9.60
2018-09-05T03:54:17.423Z,9.53
2018-09-05T03:56:45.627Z,10.60
2018-09-05T03:59:13.721Z,10.13
2018-09-05T04:01:41.815Z,12.03
2018-09-05T04:04:09.903Z,9.00
2018-09-05T04:06:38.004Z,14.00
2018-09-05T04:09:08.032Z,13.20
2018-09-05T04:11:36.795Z,12.43
2018-09-05T04:14:04.910Z,11.08
2018-09-05T04:16:33.072Z,9.88
2018-09-05T04:19:01.141Z,13.05
2018-09-05T04:21:29.248Z,15.28
2018-09-05T04:23:57.398Z,14.20
2018-09-05T04:26:25.490Z,11.22
2018-09-05T04:28:53.591Z,11.40
2018-09-05T04:31:21.758Z,9.53
2018-09-05T04:33:49.846Z,12.20
2018-09-05T04:36:17.957Z,12.00
2018-09-05T04:38:46.061Z,13.68
2018-09-05T04:41:15.202Z,15.93
2018-09-05T04:43:43.291Z,14.57
2018-09-05T04:46:11.377Z,11.68
2018-09-05T04:48:39.471Z,17.00
2018-09-05T04:51:07.778Z,13.27
2018-09-05T04:53:35.880Z,12.67
2018-09-05T04:56:03.966Z,11.23
2018-09-05T04:58:32.091Z,9.17
2018-09-05T05:01:00.168Z,12.17
2018-09-05T05:03:28.384Z,13.53
2018-09-05T05:05:56.580Z,9.27
2018-09-05T05:08:24.615Z,14.53
2018-09-05T05:10:52.823Z,10.97
2018-09-05T05:13:20.984Z,10.53
2018-09-05T05:15:49.168Z,12.57
2018-09-05T05:18:17.351Z,12.27
2018-09-05T05:20:45.457Z,12.30
2018-09-05T05:23:13.547Z,13.27
2018-09-05T05:25:41.638Z,16.73
2018-09-05T05:28:09.715Z,13.07
2018-09-05T05:30:37.799Z,12.20
2018-09-05T05:33:05.947Z,9.70
2018-09-05T05:35:34.028Z,11.37
2018-09-05T05:38:02.143Z,9.47
2018-09-05T05:40:30.210Z,12.17
2018-09-05T05:42:58.364Z,9.28
2018-09-05T05:45:26.439Z,8.73
2018-09-05T05:47:54.671Z,13.77
2018-09-05T05:50:22.718Z,9.83
2018-09-05T05:52:50.795Z,14.10
2018-09-05T05:55:18.859Z,8.90
2018-09-05T05:57:46.929Z,9.03
2018-09-05T06:00:15.055Z,10.37
2018-09-05T06:02:43.155Z,11.73
2018-09-05T06:05:11.245Z,13.37
2018-09-05T06:07:39.375Z,9.33
2018-09-05T06:10:07.445Z,10.13
2018-09-05T06:12:35.663Z,10.10
2018-09-05T06:15:03.770Z,14.60
2018-09-05T06:17:31.901Z,12.70
2018-09-05T06:19:59.995Z,14.13
2018-09-05T06:22:28.060Z,13.07
2018-09-05T06:24:56.149Z,11.60
2018-09-05T06:27:24.281Z,11.20
2018-09-05T06:29:52.362Z,15.50
2018-09-05T06:32:20.429Z,13.10
2018-09-05T06:34:48.505Z,15.27
2018-09-05T06:37:16.576Z,16.83
2018-09-05T06:39:44.660Z,16.90
2018-09-05T06:42:12.747Z,16.13
2018-09-05T06:44:40.830Z,14.40
2018-09-05T06:47:08.974Z,13.43
2018-09-05T06:49:37.048Z,16.50
2018-09-05T06:52:05.112Z,11.43
2018-09-05T06:54:33.187Z,11.60
2018-09-05T06:57:01.256Z,12.80
2018-09-05T06:59:29.452Z,15.30
2018-09-05T07:01:57.638Z,12.07
2018-09-05T07:04:25.703Z,9.70
2018-09-05T07:06:53.792Z,16.57
2018-09-05T07:09:21.990Z,11.03
2018-09-05T07:11:50.115Z,12.77
2018-09-05T07:14:18.244Z,12.67
2018-09-05T07:16:46.258Z,13.27
2018-09-05T07:19:14.348Z,13.22
2018-09-05T07:21:42.419Z,12.43
2018-09-05T07:24:10.495Z,13.10
2018-09-05T07:26:38.558Z,15.93
2018-09-05T07:29:06.675Z,16.95
2018-09-05T07:31:34.777Z,17.75
2018-09-05T07:34:02.848Z,13.90
2018-09-05T07:36:30.920Z,14.28
2018-09-05T07:38:59.349Z,15.27
2018-09-05T07:41:27.365Z,15.23
2018-09-05T07:43:55.439Z,15.30
2018-09-05T07:46:23.520Z,13.60
2018-09-05T07:48:51.631Z,13.37
2018-09-05T07:51:20.270Z,9.90
2018-09-05T07:53:48.330Z,16.10
2018-09-05T07:56:16.462Z,12.47
2018-09-05T07:58:44.524Z,11.15
2018-09-05T08:01:12.595Z,15.38
2018-09-05T08:03:40.663Z,9.60
2018-09-05T08:06:08.743Z,14.73
2018-09-05T08:08:36.823Z,11.57
2018-09-05T08:11:04.917Z,12.20
2018-09-05T08:13:32.980Z,13.83
2018-09-05T08:16:01.072Z,12.50
2018-09-05T08:18:29.142Z,11.97
2018-09-05T08:20:57.321Z,13.90
2018-09-05T08:23:25.394Z,14.77
2018-09-05T08:25:54.293Z,14.10
2018-09-05T08:28:22.368Z,16.30
2018-09-05T08:30:50.475Z,17.47
2018-09-05T08:33:18.750Z,18.80
2018-09-05T08:35:47.072Z,15.50
2018-09-05T08:38:15.073Z,16.30
2018-09-05T08:40:43.238Z,18.30
2018-09-05T08:43:11.335Z,18.90
2018-09-05T08:45:39.630Z,17.63
2018-09-05T08:48:07.550Z,16.87
2018-09-05T08:50:36.512Z,14.10
2018-09-05T08:53:04.574Z,17.23
2018-09-05T08:55:32.655Z,18.70
2018-09-05T08:58:00.792Z,22.40
2018-09-05T09:00:28.903Z,23.47
2018-09-05T09:02:57.020Z,21.80
2018-09-05T09:05:25.403Z,19.40
2018-09-05T09:07:53.498Z,22.27
2018-09-05T09:10:21.613Z,24.03
2018-09-05T09:12:49.683Z,17.77
2018-09-05T09:15:17.790Z,21.97
2018-09-05T09:17:46.016Z,21.53
2018-09-05T09:20:14.137Z,16.50
2018-09-05T09:22:42.245Z,21.17
2018-09-05T09:25:10.342Z,19.03
2018-09-05T09:27:38.474Z,19.40
2018-09-05T09:30:06.703Z,18.10
2018-09-05T09:32:34.799Z,21.83
2018-09-05T09:35:02.884Z,20.07
2018-09-05T09:37:31.146Z,14.95
2018-09-05T09:39:59.256Z,17.67
2018-09-05T09:42:27.373Z,22.23
2018-09-05T09:44:56.502Z,19.98
2018-09-05T09:47:24.589Z,18.10
2018-09-05T09:49:52.678Z,20.17
2018-09-05T09:52:21.964Z,16.73
2018-09-05T09:54:51.468Z,22.40
2018-09-05T09:57:19.646Z,19.70
2018-09-05T09:59:47.723Z,25.25
2018-09-05T10:02:21.226Z,20.73
2018-09-05T10:04:54.682Z,21.93
2018-09-05T10:07:28.025Z,19.07
2018-09-05T10:10:02.479Z,16.52
2018-09-05T10:12:35.943Z,15.10
2018-09-05T10:15:09.437Z,21.63
2018-09-05T10:17:38.512Z,24.18
2018-09-05T10:20:06.646Z,30.60
2018-09-05T10:22:34.744Z,23.50
2018-09-05T10:25:02.942Z,17.00
2018-09-05T10:27:31.031Z,15.70
2018-09-05T10:29:59.124Z,18.37
2018-09-05T10:32:27.705Z,22.73
2018-09-05T10:34:56.803Z,19.23
2018-09-05T10:37:25.114Z,17.53
2018-09-05T10:39:53.302Z,16.00
2018-09-05T10:42:21.413Z,19.83
2018-09-05T10:44:49.519Z,19.90
2018-09-05T10:47:17.612Z,21.23
2018-09-05T10:49:45.719Z,18.17
2018-09-05T10:52:13.822Z,24.10
2018-09-05T10:54:41.924Z,20.27
2018-09-05T10:57:10.055Z,19.90
2018-09-05T10:59:38.133Z,17.93
2018-09-05T11:02:06.398Z,19.10
2018-09-05T11:04:34.554Z,16.32
2018-09-05T11:07:02.640Z,15.32
2018-09-05T11:09:30.814Z,19.00
2018-09-05T11:11:58.994Z,17.77
2018-09-05T11:14:27.075Z,18.20
2018-09-05T11:16:55.216Z,15.23
2018-09-05T11:19:23.360Z,17.73
2018-09-05T11:21:51.467Z,16.47
2018-09-05T11:24:19.568Z,21.57
2018-09-05T11:26:47.671Z,18.47
2018-09-05T11:29:15.791Z,13.60
2018-09-05T11:31:43.951Z,15.20
2018-09-05T11:34:12.055Z,15.60
2018-09-05T11:36:40.272Z,14.07
2018-09-05T11:39:09.880Z,14.43
2018-09-05T11:41:37.966Z,16.07
2018-09-05T11:44:06.522Z,12.43
2018-09-05T11:46:34.673Z,11.60
2018-09-05T11:49:02.792Z,12.00
2018-09-05T11:51:30.959Z,14.90
2018-09-05T11:58:56.005Z,15.60
2018-09-05T12:01:24.850Z,15.27
2018-09-05T12:03:53.072Z,17.93
2018-09-05T12:06:21.176Z,11.27
2018-09-05T12:08:49.290Z,13.23
2018-09-05T12:11:17.389Z,12.55
2018-09-05T12:13:45.484Z,13.63
2018-09-05T12:16:13.591Z,11.60
2018-09-05T12:18:41.811Z,12.13
2018-09-05T12:21:09.910Z,11.30
2018-09-05T12:23:38.015Z,13.88
2018-09-05T12:26:06.114Z,10.40
2018-09-05T12:28:34.185Z,10.20
2018-09-05T12:31:02.267Z,15.03
2018-09-05T12:33:31.414Z,14.13
2018-09-05T12:35:59.523Z,10.18
2018-09-05T12:38:27.595Z,9.83
2018-09-05T12:40:55.695Z,12.83
2018-09-05T12:43:24.011Z,14.67
2018-09-05T12:45:52.096Z,8.97
2018-09-05T12:48:20.191Z,11.97
2018-09-05T12:50:48.291Z,14.90
2018-09-05T12:53:16.389Z,14.27
2018-09-05T12:55:44.514Z,13.32
2018-09-05T12:58:12.616Z,9.63
2018-09-05T13:00:40.713Z,12.17
2018-09-05T13:03:08.832Z,11.30
2018-09-05T13:05:37.079Z,11.40
2018-09-05T13:08:05.042Z,10.83
2018-09-05T13:10:33.510Z,11.13
2018-09-05T13:13:01.718Z,10.08
2018-09-05T13:15:29.816Z,12.07
2018-09-05T13:17:57.903Z,13.60
2018-09-05T13:20:26.121Z,10.60
2018-09-05T13:22:54.277Z,10.13
2018-09-05T13:25:22.306Z,9.53
2018-09-05T13:27:50.647Z,13.07
2018-09-05T13:30:18.733Z,15.00
2018-09-05T13:32:46.878Z,11.90
2018-09-05T13:35:14.955Z,12.93
2018-09-05T13:37:43.038Z,11.10
2018-09-05T13:40:11.198Z,13.83
2018-09-05T13:42:39.274Z,15.67
2018-09-05T13:45:07.453Z,13.63
2018-09-05T13:47:35.540Z,11.83
2018-09-05T13:50:03.797Z,11.83
2018-09-05T13:52:31.898Z,15.57
2018-09-05T13:55:00.020Z,11.13
2018-09-05T13:57:28.105Z,11.25
2018-09-05T13:59:56.175Z,10.53
2018-09-05T14:02:24.415Z,16.50
2018-09-05T14:04:52.441Z,11.57
2018-09-05T14:07:20.524Z,12.57
2018-09-05T14:09:48.595Z,10.83
2018-09-05T14:12:16.678Z,12.47
2018-09-05T14:14:44.763Z,8.90
2018-09-05T14:17:12.943Z,10.03
2018-09-05T14:19:41.026Z,10.73
2018-09-05T14:22:09.098Z,9.50
2018-09-05T14:24:37.271Z,11.50
2018-09-05T14:27:05.351Z,13.60
2018-09-05T14:29:33.429Z,9.27
2018-09-05T14:32:01.510Z,14.10
2018-09-05T14:34:29.596Z,9.47
2018-09-05T14:36:57.671Z,9.10
2018-09-05T14:39:25.890Z,10.93
2018-09-05T14:41:54.222Z,9.20
2018-09-05T14:44:22.328Z,11.17
2018-09-05T14:46:50.404Z,11.00
2018-09-05T14:49:18.468Z,9.67
2018-09-05T14:51:46.546Z,9.93
2018-09-05T14:54:14.623Z,9.17
2018-09-05T14:56:42.677Z,13.30
2018-09-05T14:59:10.776Z,8.20
2018-09-05T15:01:38.835Z,9.20
2018-09-05T15:04:06.907Z,8.57
2018-09-05T15:06:35.066Z,9.73
2018-09-05T15:09:03.156Z,9.83
2018-09-05T15:11:31.268Z,8.98
2018-09-05T15:13:59.419Z,9.87
2018-09-05T15:16:27.470Z,15.03
2018-09-05T15:18:55.554Z,11.20
2018-09-05T15:21:23.633Z,12.60
2018-09-05T15:23:51.797Z,11.87
2018-09-05T15:26:19.881Z,13.33
2018-09-05T15:28:48.003Z,13.37
2018-09-05T15:31:16.022Z,9.27
2018-09-05T15:33:44.091Z,11.40
2018-09-05T15:36:12.182Z,14.18
2018-09-05T15:38:40.258Z,10.50
2018-09-05T15:41:08.330Z,6.60
2018-09-05T15:43:36.399Z,10.20
2018-09-05T15:46:04.487Z,11.33
2018-09-05T15:48:32.557Z,11.10
2018-09-05T15:51:00.663Z,11.90
2018-09-05T15:53:28.735Z,7.00
2018-09-05T15:55:56.811Z,8.20
2018-09-05T15:58:24.948Z,9.60
2018-09-05T16:00:53.034Z,8.97
2018-09-05T16:03:21.140Z,11.20
2018-09-05T16:05:49.914Z,9.57
2018-09-05T16:08:17.941Z,9.10
2018-09-05T16:10:46.027Z,11.00
2018-09-05T16:13:14.104Z,9.60
2018-09-05T16:15:42.359Z,9.07
2018-09-05T16:18:10.265Z,7.87
2018-09-05T16:20:38.356Z,7.37
2018-09-05T16:23:06.765Z,9.07
2018-09-05T16:25:34.837Z,7.77
2018-09-05T16:28:02.907Z,12.10
2018-09-05T16:30:30.981Z,9.23
2018-09-05T16:32:59.130Z,11.83
2018-09-05T16:35:27.357Z,10.43
2018-09-05T16:37:55.351Z,11.43
2018-09-05T16:40:23.422Z,7.83
2018-09-05T16:42:51.492Z,12.43
2018-09-05T16:45:19.567Z,9.80
2018-09-05T16:47:47.739Z,9.60
2018-09-05T16:50:15.807Z,9.00
2018-09-05T16:52:43.886Z,14.23
2018-09-05T16:55:11.946Z,10.60
2018-09-05T16:57:40.983Z,9.63
2018-09-05T17:00:09.069Z,11.30
2018-09-05T17:02:37.142Z,11.00
2018-09-05T17:05:05.306Z,10.63
2018-09-05T17:07:33.427Z,10.57
2018-09-05T17:10:01.558Z,10.33
2018-09-05T17:12:29.766Z,10.77
2018-09-05T17:14:57.854Z,10.23
2018-09-05T17:17:26.049Z,9.57
2018-09-05T17:19:54.129Z,9.97
2018-09-05T17:22:22.639Z,8.63
2018-09-05T17:24:50.806Z,9.10
2018-09-05T17:27:18.978Z,12.03
2018-09-05T17:29:47.039Z,13.50
2018-09-05T17:32:15.137Z,10.40
2018-09-05T17:34:43.198Z,18.00
2018-09-05T17:37:11.292Z,14.80
2018-09-05T17:39:39.367Z,18.52
2018-09-05T17:42:07.459Z,15.95
2018-09-05T17:44:35.843Z,15.80
2018-09-05T17:47:03.934Z,15.77
2018-09-05T17:49:32.002Z,13.83
2018-09-05T17:52:00.099Z,14.20
2018-09-05T17:54:32.544Z,12.60
2018-09-05T17:57:00.774Z,10.78
2018-09-05T17:59:28.850Z,13.60
2018-09-05T18:02:02.124Z,11.20
2018-09-05T18:04:30.222Z,20.87
2018-09-05T18:06:58.365Z,13.90
2018-09-05T18:09:28.721Z,8.17
2018-09-05T18:11:56.800Z,12.07
2018-09-05T18:14:26.511Z,8.10
2018-09-05T18:16:55.537Z,10.98
2018-09-05T18:19:24.738Z,14.40
2018-09-05T18:21:52.839Z,11.17
2018-09-05T18:24:20.958Z,14.80
2018-09-05T18:26:49.026Z,11.20
2018-09-05T18:29:17.148Z,10.67
2018-09-05T18:31:45.203Z,10.50
2018-09-05T18:34:13.286Z,10.53
2018-09-05T18:36:41.411Z,11.13
2018-09-05T18:39:10.003Z,12.33
2018-09-05T18:41:38.476Z,11.45
2018-09-05T18:44:06.576Z,10.00
2018-09-05T18:46:34.662Z,9.30
2018-09-05T18:49:02.819Z,11.20
2018-09-05T18:51:30.974Z,8.67
2018-09-05T18:53:59.089Z,10.73
2018-09-05T18:56:27.762Z,13.00
2018-09-05T18:58:55.862Z,10.70
2018-09-05T19:01:23.970Z,11.80
2018-09-05T19:03:52.074Z,11.30
2018-09-05T19:06:20.155Z,9.23
2018-09-05T19:08:48.249Z,14.07
2018-09-05T19:11:16.731Z,11.48
2018-09-05T19:13:44.879Z,11.07
2018-09-05T19:16:12.979Z,13.87
2018-09-05T19:18:41.054Z,13.80
2018-09-05T19:21:09.174Z,11.80
2018-09-05T19:23:37.294Z,10.73
2018-09-05T19:26:05.636Z,17.07
2018-09-05T19:28:33.795Z,14.10
2018-09-05T19:31:01.892Z,12.90
2018-09-05T19:33:29.974Z,18.23
2018-09-05T19:35:58.087Z,13.53
2018-09-05T19:38:26.191Z,12.60
2018-09-05T19:40:54.290Z,11.90
2018-09-05T19:43:22.356Z,12.50
2018-09-05T19:45:50.456Z,13.97
2018-09-05T19:48:18.547Z,12.20
2018-09-05T19:50:46.651Z,13.60
2018-09-05T19:53:14.727Z,17.83
2018-09-05T19:55:42.996Z,13.63
2018-09-05T19:58:11.091Z,9.73
2018-09-05T20:00:39.201Z,10.23
2018-09-05T20:03:07.291Z,12.30
2018-09-05T20:05:35.392Z,15.57
2018-09-05T20:08:03.505Z,13.20
2018-09-05T20:10:31.613Z,14.33
2018-09-05T20:12:59.747Z,10.47
2018-09-05T20:15:27.861Z,11.47
2018-09-05T20:17:55.965Z,13.03
2018-09-05T20:20:24.130Z,12.30
2018-09-05T20:22:53.238Z,10.65
2018-09-05T20:25:21.413Z,11.27
2018-09-05T20:27:50.279Z,15.97
2018-09-05T20:30:18.366Z,15.67
2018-09-05T20:32:46.512Z,15.37
2018-09-05T20:35:14.618Z,12.40
2018-09-05T20:37:42.755Z,14.50
2018-09-05T20:40:10.876Z,15.43
2018-09-05T20:42:38.962Z,17.15
2018-09-05T20:45:07.117Z,17.73
2018-09-05T20:47:35.657Z,14.87
2018-09-05T20:50:03.982Z,14.23
2018-09-05T20:52:32.091Z,16.63
2018-09-05T20:55:00.209Z,13.67
2018-09-05T20:57:28.278Z,16.40
2018-09-05T20:59:56.471Z,14.67
2018-09-05T21:02:24.598Z,13.57
2018-09-05T21:04:52.676Z,15.20
2018-09-05T21:07:20.776Z,12.43
2018-09-05T21:09:48.884Z,13.67
2018-09-05T21:12:17.004Z,13.70
2018-09-05T21:14:45.131Z,15.47
2018-09-05T21:17:13.230Z,20.45
2018-09-05T21:19:41.324Z,13.53
2018-09-05T21:22:09.405Z,19.67
2018-09-05T21:24:37.508Z,15.55
2018-09-05T21:27:05.833Z,16.63
2018-09-05T21:29:33.951Z,15.57
2018-09-05T21:32:02.194Z,15.03
2018-09-05T21:34:30.274Z,16.70
2018-09-05T21:36:58.470Z,16.87
2018-09-05T21:39:26.568Z,17.07
2018-09-05T21:41:55.035Z,16.65
2018-09-05T21:44:23.108Z,15.47
2018-09-05T21:46:51.187Z,15.53
2018-09-05T21:49:19.276Z,17.37
2018-09-05T21:51:47.355Z,16.97
2018-09-05T21:54:15.463Z,14.60
2018-09-05T21:56:43.551Z,18.10
2018-09-05T22:02:39.899Z,19.27
2018-09-05T22:05:07.997Z,16.33
2018-09-05T22:07:36.101Z,19.27
2018-09-05T22:10:05.680Z,18.60
2018-09-05T22:12:33.760Z,17.67
2018-09-05T22:15:01.869Z,14.27
2018-09-05T22:17:29.979Z,16.23
2018-09-05T22:19:58.119Z,14.83
2018-09-05T22:22:26.214Z,18.23
2018-09-05T22:24:54.326Z,18.87
2018-09-05T22:27:22.411Z,17.53
2018-09-05T22:29:50.500Z,18.70
2018-09-05T22:32:18.644Z,18.80
2018-09-05T22:34:46.702Z,19.70
2018-09-05T22:37:14.894Z,21.10
2018-09-05T22:39:42.974Z,18.83
2018-09-05T22:42:13.091Z,25.33
2018-09-05T22:44:53.235Z,20.10
2018-09-05T22:47:32.774Z,21.10
2018-09-05T22:50:18.230Z,21.77
2018-09-05T22:53:08.890Z,11.87
2018-09-05T22:55:54.001Z,21.03
2018-09-05T23:00:09.228Z,18.33
2018-09-05T23:05:52.526Z,20.23
2018-09-05T23:08:37.444Z,19.07
2018-09-05T23:11:19.825Z,18.07
2018-09-05T23:14:01.750Z,18.67
2018-09-05T23:16:41.502Z,19.70
2018-09-05T23:19:34.845Z,18.70
2018-09-05T23:22:02.972Z,16.37
2018-09-05T23:24:31.067Z,17.40
2018-09-05T23:26:59.255Z,21.50
2018-09-05T23:29:27.984Z,14.60
2018-09-05T23:31:56.101Z,20.27
2018-09-05T23:34:24.202Z,18.67
2018-09-05T23:36:52.336Z,13.10
2018-09-05T23:39:20.482Z,16.83
2018-09-05T23:41:48.572Z,17.40
2018-09-05T23:44:16.684Z,15.53
2018-09-05T23:46:44.776Z,16.57
2018-09-05T23:49:12.912Z,12.67
2018-09-05T23:51:41.011Z,15.80
2018-09-05T23:54:09.316Z,16.00
2018-09-05T23:56:37.419Z,21.17
2018-09-05T23:59:06.460Z,21.30
